Time;durP1;ratioP1;P1;durP2;ratioP2;P2;SDS_P1;SDS_P2;PMS_P1;PMS_P2;Temp;Humidity;BMP_temperature;BMP_pressure;BME280_temperature;BME280_humidity;BME280_pressure;Samples;Min_cycle;Max_cycle;Signal;HPM_P1;HPM_P2
2022/02/26 00:01:16;;;;;;;25.20;6.20;;;;;;;0.03;100.00;103192.38;2602233;54;20038;31
2022/02/26 00:04:02;;;;;;;16.17;5.50;;;;;;;0.03;100.00;103205.59;2602865;46;20048;31
2022/02/26 00:54:26;;;;;;;17.93;6.70;;;;;;;-0.41;100.00;103237.59;2609537;39;20311;31
2022/02/26 00:57:04;;;;;;;22.48;7.35;;;;;;;-0.45;100.00;103235.84;2614307;39;20862;31
2022/02/26 01:04:53;;;;;;;30.45;8.23;;;;;;;-0.66;100.00;103238.56;2608637;39;20414;31
2022/02/26 01:07:28;;;;;;;19.38;7.32;;;;;;;-0.59;100.00;103228.00;2603263;54;21186;31
2022/02/26 01:15:20;;;;;;;25.70;7.95;;;;;;;-0.83;100.00;103242.16;2602391;54;20038;31
2022/02/26 01:20:29;;;;;;;26.97;8.60;;;;;;;-0.90;100.00;103246.59;2602173;54;20390;31
2022/02/26 01:28:12;;;;;;;25.27;8.73;;;;;;;-0.97;100.00;103236.00;2602263;54;20454;31
2022/02/26 01:30:52;;;;;;;28.35;10.20;;;;;;;-0.92;100.00;103239.53;2602136;47;20046;31
2022/02/26 01:33:27;;;;;;;26.65;10.00;;;;;;;-0.98;100.00;103239.56;2602878;54;20262;31
2022/02/26 01:46:23;;;;;;;;;;;;;;;-1.01;100.00;103245.72;2601905;54;20035;31
2022/02/26 01:49:02;;;;;;;31.25;14.45;;;;;;;-0.98;100.00;103247.47;2602817;47;19954;31
2022/02/26 01:56:50;;;;;;;25.77;12.95;;;;;;;-1.19;100.00;103246.63;2608361;39;20342;31
2022/02/26 01:59:25;;;;;;;28.73;12.65;;;;;;;-1.27;100.00;103254.53;2603033;54;21185;31
2022/02/26 02:12:21;;;;;;;;;;;;;;;-1.29;100.00;103260.72;2601744;54;20892;31
2022/02/26 02:17:47;;;;;;;33.00;12.45;;;;;;;-1.39;100.00;103243.97;2601640;54;21476;31
2022/02/26 02:22:59;;;;;;;33.33;11.25;;;;;;;-1.53;100.00;103238.72;2601857;54;20038;31
2022/02/26 02:28:09;;;;;;;36.17;11.65;;;;;;;-1.52;100.00;103240.44;2602992;54;21573;31
2022/02/26 02:33:19;;;;;;;23.00;12.45;;;;;;;-1.57;100.00;103229.03;2602878;54;20092;31
2022/02/26 02:38:30;;;;;;;33.92;12.00;;;;;;;-1.57;100.00;103244.88;2602706;54;20509;31
2022/02/26 02:43:39;;;;;;;30.77;10.87;;;;;;;-1.62;100.00;103236.03;2602725;54;20042;31
2022/02/26 02:51:23;;;;;;;27.63;10.63;;;;;;;-1.65;100.00;103249.25;2602818;54;20743;31
2022/02/26 02:56:34;;;;;;;23.60;9.85;;;;;;;-1.76;100.00;103250.09;2602512;54;20410;31
2022/02/26 03:04:17;;;;;;;29.65;12.20;;;;;;;-1.69;100.00;103235.19;2602393;54;21178;31
2022/02/26 03:09:27;;;;;;;31.27;11.60;;;;;;;-1.65;100.00;103251.88;2602494;54;20084;31
2022/02/26 03:12:06;;;;;;;31.70;11.30;;;;;;;-1.65;100.00;103241.31;2603329;46;20280;31
2022/02/26 03:22:28;;;;;;;;;;;;;;;-1.68;100.00;103267.72;2601793;54;20228;31
2022/02/26 03:25:07;;;;;;;35.45;13.80;;;;;;;-1.65;100.00;103267.72;2602853;47;21177;31
2022/02/26 03:35:23;;;;;;;29.60;13.15;;;;;;;-1.69;100.00;103276.50;2603368;54;20780;31
2022/02/26 03:40:33;;;;;;;33.10;12.35;;;;;;;-1.79;100.00;103279.16;2602141;54;20042;31
2022/02/26 03:43:10;;;;;;;33.78;13.25;;;;;;;-1.70;100.00;103286.22;2602997;46;21323;31
2022/02/26 03:51:05;;;;;;;27.73;12.18;;;;;;;-1.74;100.00;103288.84;2602174;54;19931;31
2022/02/26 03:53:41;;;;;;;33.95;13.90;;;;;;;-1.71;100.00;103291.50;2602833;39;20709;31
2022/02/26 03:58:51;;;;;;;31.17;13.80;;;;;;;-1.65;100.00;103315.25;2602282;54;20518;31
2022/02/26 04:04:02;;;;;;;27.10;12.30;;;;;;;-1.70;100.00;103325.81;2602481;54;20395;31
2022/02/26 04:06:41;;;;;;;43.35;12.30;;;;;;;-1.66;100.00;103335.50;2621517;36;20414;31
2022/02/26 04:14:29;;;;;;;36.50;14.25;;;;;;;-1.62;100.00;103339.94;2601354;54;20030;31
2022/02/26 04:19:52;;;;;;;33.90;14.20;;;;;;;-1.62;100.00;103336.38;2601972;54;21373;31
2022/02/26 04:25:08;;;;;;;38.15;16.27;;;;;;;-1.52;100.00;103353.16;2601613;54;20030;31
2022/02/26 04:27:44;;;;;;;37.90;17.05;;;;;;;-1.35;100.00;103358.47;2603325;31;21528;31
2022/02/26 04:30:20;;;;;;;41.28;18.35;;;;;;;-1.14;100.00;103355.84;2602308;54;20066;31
2022/02/26 04:33:00;;;;;;;44.80;18.48;;;;;;;-1.14;100.00;103355.84;2602344;47;21640;31
2022/02/26 04:40:52;;;;;;;47.08;17.95;;;;;;;-1.28;100.00;103360.22;2601153;54;20096;31
2022/02/26 04:43:28;;;;;;;43.78;18.77;;;;;;;-1.27;100.00;103362.00;2601970;47;20454;31
2022/02/26 04:51:24;;;;;;;56.08;21.75;;;;;;;-1.07;100.00;103362.91;2601733;54;21066;31
2022/02/26 04:54:00;;;;;;;63.13;24.13;;;;;;;-1.09;100.00;103367.31;2603133;54;20394;31
2022/02/26 05:01:52;;;;;;;55.63;22.13;;;;;;;-1.28;100.00;103376.06;2600894;54;20821;31
2022/02/26 05:07:02;;;;;;;55.08;22.05;;;;;;;-1.14;100.00;103378.75;2600928;54;20092;31
2022/02/26 05:09:39;;;;;;;61.40;22.53;;;;;;;-1.23;100.00;103387.56;2610151;39;20141;31
2022/02/26 05:14:56;;;;;;;62.30;22.90;;;;;;;-1.10;100.00;103381.41;2600640;54;20306;31
2022/02/26 05:17:35;;;;;;;57.65;22.90;;;;;;;-1.13;100.00;103383.16;2601746;47;20065;31
2022/02/26 05:25:25;;;;;;;57.97;22.37;;;;;;;-1.18;100.00;103384.91;2607174;39;20137;31
2022/02/26 05:30:35;;;;;;;61.22;23.08;;;;;;;-1.11;100.00;103397.25;2609102;39;20407;31
2022/02/26 05:35:47;;;;;;;57.90;24.10;;;;;;;-1.14;100.00;103402.53;2600562;54;20887;31
2022/02/26 05:40:58;;;;;;;54.80;23.10;;;;;;;-1.14;100.00;103413.97;2601259;39;20653;31
2022/02/26 05:43:37;;;;;;;55.97;22.52;;;;;;;-1.21;100.00;103411.34;2601341;47;20490;31
2022/02/26 05:51:34;;;;;;;46.30;20.85;;;;;;;-1.28;100.00;103421.00;2602110;54;22651;31
2022/02/26 05:56:58;;;;;;;61.65;24.30;;;;;;;-1.10;100.00;103450.13;2600929;54;21407;31
2022/02/26 06:02:07;;;;;;;47.55;20.35;;;;;;;-1.36;100.00;103449.16;2601389;54;21281;31
2022/02/26 06:07:31;;;;;;;46.30;21.87;;;;;;;-1.08;100.00;103456.28;2601931;54;20270;31
2022/02/26 06:10:08;;;;;;;41.70;19.40;;;;;;;-1.14;100.00;103458.91;2602419;54;20266;31
2022/02/26 06:18:00;;;;;;;45.53;21.33;;;;;;;-1.13;100.00;103471.25;2607127;39;20430;31
2022/02/26 06:23:10;;;;;;;44.85;22.10;;;;;;;-1.13;100.00;103463.34;2601438;54;20768;31
2022/02/26 06:28:20;;;;;;;45.83;21.17;;;;;;;-1.24;100.00;103476.53;2601095;54;21156;31
2022/02/26 06:33:31;;;;;;;62.00;22.20;;;;;;;-1.25;100.00;103460.66;2601029;54;21263;31
2022/02/26 06:38:41;;;;;;;59.95;26.30;;;;;;;-1.14;100.00;103476.53;2601265;54;20406;31
2022/02/26 06:43:50;;;;;;;55.00;22.25;;;;;;;-1.26;100.00;103480.91;2600980;54;21316;31
2022/02/26 06:46:27;;;;;;;60.85;24.65;;;;;;;-1.12;100.00;103480.97;2601783;39;20354;31
2022/02/26 06:49:06;;;;;;;61.00;24.92;;;;;;;-1.20;100.00;103487.97;2601105;46;20474;31
2022/02/26 06:54:30;;;;;;;50.22;24.70;;;;;;;-0.96;100.00;103488.91;2600858;54;20038;31
2022/02/26 06:59:54;;;;;;;52.70;24.35;;;;;;;-1.15;100.00;103499.47;2600643;54;20042;31
2022/02/26 07:02:31;;;;;;;53.25;24.08;;;;;;;-1.17;100.00;103510.91;2601522;54;20049;31
2022/02/26 07:10:26;;;;;;;54.10;26.40;;;;;;;-0.96;100.00;103503.00;2600189;54;20019;31
2022/02/26 07:13:05;;;;;;;55.30;27.42;;;;;;;-0.99;100.00;103512.69;2601528;54;20104;31
2022/02/26 07:20:55;;;;;;;57.42;28.38;;;;;;;-0.92;100.00;103518.00;2600452;54;20035;31
2022/02/26 07:26:11;;;;;;;59.20;29.20;;;;;;;-0.90;100.00;103518.00;2600732;54;21767;31
2022/02/26 07:28:56;;;;;;;58.73;27.40;;;;;;;-0.77;100.00;103519.78;2610671;39;21410;31
2022/02/26 07:31:35;;;;;;;68.20;29.30;;;;;;;-0.77;100.00;103522.44;2601387;54;21288;31
2022/02/26 07:39:23;;;;;;;55.17;28.95;;;;;;;-0.61;100.00;103517.19;2600300;54;21169;31
2022/02/26 07:44:33;;;;;;;58.10;29.05;;;;;;;-0.38;100.00;103512.78;2605714;39;20205;31
2022/02/26 07:52:27;;;;;;;49.95;26.90;;;;;;;-0.55;100.00;103519.81;2601029;54;21676;31
2022/02/26 07:55:07;;;;;;;50.47;28.08;;;;;;;-0.52;100.00;103525.13;2602022;39;20358;31
2022/02/26 08:02:56;;;;;;;60.60;31.70;;;;;;;-0.13;100.00;103522.47;2601471;39;20283;31
2022/02/26 08:05:32;;;;;;;55.38;31.25;;;;;;;0.06;100.00;103523.34;2603088;46;20350;31
2022/02/26 08:16:38;;;;;;;62.85;31.75;;;;;;;0.36;100.00;103542.72;2601827;54;20863;31
2022/02/26 08:24:34;;;;;;;67.87;35.47;;;;;;;0.98;100.00;103541.56;2600965;54;21391;31
2022/02/26 08:27:13;;;;;;;71.30;37.17;;;;;;;1.12;100.00;103541.53;2602911;46;20085;31
2022/02/26 08:35:04;;;;;;;72.22;39.38;;;;;;;1.58;100.00;103543.00;2600512;54;21260;31
2022/02/26 08:37:46;;;;;;;71.30;40.53;;;;;;;1.90;100.00;103553.34;2600323;46;20318;31
2022/02/26 08:40:32;;;;;;;74.57;41.72;;;;;;;1.94;100.00;103543.56;2600956;46;20281;31
2022/02/26 08:45:50;;;;;;;80.47;40.28;;;;;;;2.16;100.00;103546.03;2600146;54;20733;31
2022/02/26 08:48:27;;;;;;;74.17;41.20;;;;;;;2.48;100.00;103540.38;2600560;54;20177;31
2022/02/26 08:51:07;;;;;;;66.90;39.07;;;;;;;2.47;100.00;103545.69;2600903;47;20583;31
2022/02/26 08:58:54;;;;;;;;;;;;;;;2.72;100.00;103541.84;2600018;54;21728;31
2022/02/26 09:01:33;;;;;;;72.03;37.55;;;;;;;2.81;100.00;103543.50;2600953;54;20158;31
2022/02/26 09:09:22;;;;;;;62.70;35.08;;;;;;;3.27;100.00;103545.56;2600011;39;20393;31
2022/02/26 09:12:00;;;;;;;64.05;32.60;;;;;;;3.32;100.00;103546.34;2601924;39;20137;31
2022/02/26 09:14:36;;;;;;;66.45;33.55;;;;;;;3.52;100.00;103539.88;2603530;39;21370;31
2022/02/26 09:22:28;;;;;;;63.53;27.02;;;;;;;3.79;100.00;103540.31;2599470;54;20026;31
2022/02/26 09:25:07;;;;;;;48.40;26.00;;;;;;;3.84;100.00;103531.34;2600172;54;20270;31
2022/02/26 09:27:44;;;;;;;54.00;25.30;;;;;;;3.90;100.00;103530.34;2600207;47;20283;31
2022/02/26 09:30:19;;;;;;;56.25;25.25;;;;;;;4.26;100.00;103530.56;2600688;47;21421;31
2022/02/26 09:38:11;;;;;;;32.25;15.73;;;;;;;4.54;100.00;103522.91;2600219;54;20436;31
2022/02/26 09:43:20;;;;;;;35.17;13.25;;;;;;;4.73;100.00;103522.53;2600975;54;20442;31
2022/02/26 09:45:57;;;;;;;30.35;10.05;;;;;;;4.83;100.00;103516.09;2602103;39;21339;31
2022/02/26 09:53:49;;;;;;;21.48;5.53;;;;;;;5.34;100.00;103512.25;2599946;54;20034;31
2022/02/26 10:01:58;;;;;;;20.40;6.75;;;;;;;5.35;100.00;103513.16;2600385;39;20303;31
2022/02/26 10:07:11;;;;;;;20.58;6.05;;;;;;;5.58;100.00;103523.25;2600591;54;20058;31
2022/02/26 10:12:24;;;;;;;19.23;4.88;;;;;;;5.90;100.00;103522.47;2600628;54;20038;31
2022/02/26 10:17:34;;;;;;;15.40;4.85;;;;;;;6.00;100.00;103517.78;2600870;54;21779;31
2022/02/26 10:22:43;;;;;;;19.95;4.40;;;;;;;6.12;100.00;103521.91;2600614;54;21063;31
2022/02/26 10:27:56;;;;;;;15.40;3.50;;;;;;;6.05;100.00;103513.19;2600579;39;20888;31
2022/02/26 10:30:33;;;;;;;16.45;4.30;;;;;;;6.06;100.00;103508.72;2600940;39;20954;31
2022/02/26 10:35:59;;;;;;;14.30;3.75;;;;;;;6.19;100.00;103511.94;2600131;54;20082;31
2022/02/26 10:38:35;;;;;;;12.13;3.30;;;;;;;6.36;100.00;103514.13;2601826;39;21319;31
2022/02/26 10:49:02;;;;;;;11.25;2.88;;;;;;;6.29;100.00;103503.59;2600306;54;20756;31
2022/02/26 10:56:46;;;;;;;10.30;2.83;;;;;;;6.47;100.00;103501.34;2602174;54;20419;31
2022/02/26 10:59:31;;;;;;;6.70;1.75;;;;;;;6.55;100.00;103502.00;2605927;39;20931;31
2022/02/26 11:04:37;;;;;;;10.80;2.33;;;;;;;6.55;100.00;103493.06;2643978;36;20023;-83
2022/02/26 11:09:47;;;;;;;11.77;2.75;;;;;;;6.72;100.00;103487.25;2602292;54;20545;31
2022/02/26 11:14:59;;;;;;;7.43;2.88;;;;;;;6.80;100.00;103493.22;2601498;54;20718;31
2022/02/26 11:26:01;;;;;;;10.85;2.85;;;;;;;7.13;100.00;103487.75;2624481;31;20355;31
2022/02/26 11:31:11;;;;;;;12.73;2.42;;;;;;;7.26;100.00;103491.78;2601635;54;20034;31
2022/02/26 11:36:32;;;;;;;9.30;2.70;;;;;;;7.24;100.00;103487.41;2601391;39;20183;31
2022/02/26 11:39:10;;;;;;;8.35;2.22;;;;;;;7.33;100.00;103485.31;2601725;47;20702;31
2022/02/26 11:49:33;;;;;;;11.63;2.63;;;;;;;7.48;100.00;103483.03;2600868;54;21169;31
2022/02/26 11:57:25;;;;;;;11.85;2.85;;;;;;;7.75;100.00;103473.19;2600317;54;20872;31
2022/02/26 12:00:12;;;;;;;9.07;2.55;;;;;;;7.86;100.00;103470.13;2601804;47;20968;31
2022/02/26 12:18:28;;;;;;;12.70;3.40;;;;;;;7.97;100.00;103469.75;2602115;54;20242;31
2022/02/26 12:21:10;;;;;;;10.00;3.90;;;;;;;7.94;100.00;103477.91;2602736;46;20708;31
2022/02/26 12:34:15;;;;;;;13.45;4.60;;;;;;;7.78;100.00;103451.63;2602347;54;21606;31
2022/02/26 12:36:55;;;;;;;12.00;4.60;;;;;;;7.84;100.00;103454.09;2602077;54;20468;31
2022/02/26 12:39:30;;;;;;;15.52;4.95;;;;;;;7.98;100.00;103450.94;2602692;47;21360;31
2022/02/26 12:42:06;;;;;;;10.70;4.60;;;;;;;8.06;100.00;103451.50;2622816;39;21617;31
2022/02/26 12:47:16;;;;;;;12.07;4.50;;;;;;;8.16;100.00;103435.97;2603245;39;21008;31
2022/02/26 12:52:28;;;;;;;14.88;4.55;;;;;;;8.07;100.00;103425.56;2602828;54;21334;31
2022/02/26 12:55:11;;;;;;;10.75;4.68;;;;;;;8.06;100.00;103419.31;2602408;47;20663;31
2022/02/26 12:57:47;;;;;;;15.00;5.00;;;;;;;8.09;100.00;103417.47;2603284;47;20968;31
2022/02/26 13:02:59;;;;;;;12.52;4.05;;;;;;;8.34;100.00;103409.38;2602177;54;20763;31
2022/02/26 13:08:11;;;;;;;12.50;4.13;;;;;;;8.18;100.00;103395.66;2636899;31;20974;31
2022/02/26 13:13:23;;;;;;;9.40;2.40;;;;;;;8.35;100.00;103387.84;2602460;54;20034;31
2022/02/26 13:18:53;;;;;;;14.25;2.80;;;;;;;8.24;100.00;103390.06;2601640;54;20044;31
2022/02/26 13:21:36;;;;;;;7.28;2.15;;;;;;;8.20;100.00;103383.03;2602925;47;20030;31
2022/02/26 13:29:30;;;;;;;9.25;2.40;;;;;;;8.33;100.00;103378.09;2601960;39;21488;31
2022/02/26 13:34:41;;;;;;;13.00;2.90;;;;;;;8.49;100.00;103367.66;2601871;54;20786;31
2022/02/26 13:47:35;;;;;;;12.52;2.13;;;;;;;8.22;100.00;103354.38;2601053;54;20880;31
2022/02/26 13:52:46;;;;;;;11.37;2.40;;;;;;;8.52;100.00;103348.75;2606802;39;20376;31
2022/02/26 14:03:11;;;;;;;7.15;2.58;;;;;;;8.65;100.00;103349.16;2600964;54;20434;31
2022/02/26 14:08:21;;;;;;;11.10;2.58;;;;;;;8.44;100.00;103342.81;2601264;54;21615;31
2022/02/26 14:13:29;;;;;;;9.15;2.88;;;;;;;8.43;100.00;103339.22;2601514;54;21610;31
2022/02/26 14:16:10;;;;;;;8.38;3.10;;;;;;;8.39;100.00;103321.50;2601236;47;20533;31
2022/02/26 14:18:49;;;;;;;9.02;3.13;;;;;;;8.36;100.00;103329.66;2602456;54;20029;31
2022/02/26 14:29:14;;;;;;;12.63;3.20;;;;;;;8.63;100.00;103322.38;2618356;39;20756;31
2022/02/26 14:31:58;;;;;;;10.77;2.65;;;;;;;8.69;100.00;103324.78;2603248;46;20035;31
2022/02/26 14:42:14;;;;;;;5.00;2.27;;;;;;;8.41;100.00;103312.47;2608017;39;20921;31
2022/02/26 14:44:50;;;;;;;8.15;2.47;;;;;;;8.33;100.00;103309.22;2602565;54;20547;31
2022/02/26 14:47:27;;;;;;;11.57;3.30;;;;;;;8.43;100.00;103307.03;2603543;54;20042;31
2022/02/26 15:00:26;;;;;;;;;;;;;;;8.67;100.00;103313.25;2601609;54;20442;31
2022/02/26 15:03:04;;;;;;;12.75;2.67;;;;;;;8.46;100.00;103314.97;2602768;47;20015;31
2022/02/26 15:13:27;;;;;;;9.63;2.58;;;;;;;8.10;100.00;103299.38;2602077;54;20030;31
2022/02/26 15:21:15;;;;;;;9.70;2.67;;;;;;;7.89;100.00;103298.38;2602618;54;20049;31
2022/02/26 15:26:24;;;;;;;11.50;2.90;;;;;;;7.83;100.00;103301.31;2602154;54;20430;31
2022/02/26 15:29:00;;;;;;;15.30;2.85;;;;;;;7.81;100.00;103297.81;2603089;47;20067;31
2022/02/26 15:39:25;;;;;;;13.52;2.70;;;;;;;7.63;100.00;103291.34;2601756;54;20482;31
2022/02/26 15:44:34;;;;;;;10.38;3.38;;;;;;;7.60;100.00;103292.34;2603172;39;20342;31
2022/02/26 15:49:45;;;;;;;10.35;2.80;;;;;;;7.43;100.00;103300.97;2608091;54;20100;31
2022/02/26 15:54:57;;;;;;;10.77;2.80;;;;;;;7.31;100.00;103304.09;2601418;39;20324;31
2022/02/26 16:00:07;;;;;;;8.32;2.30;;;;;;;7.28;100.00;103291.69;2602215;54;20380;31
2022/02/26 16:02:45;;;;;;;12.45;3.40;;;;;;;7.17;100.00;103296.56;2619759;36;20098;31
2022/02/26 16:07:54;;;;;;;13.70;6.15;;;;;;;6.86;100.00;103300.31;2601200;54;20041;31
2022/02/26 16:10:34;;;;;;;20.95;7.00;;;;;;;6.80;100.00;103301.38;2601118;46;21299;31
2022/02/26 16:13:11;;;;;;;;;;;;;;;6.68;100.00;103311.59;2601743;54;20448;31
2022/02/26 16:15:48;;;;;;;20.60;8.60;;;;;;;6.53;100.00;103311.19;2602193;46;20352;31
2022/02/26 16:23:38;;;;;;;19.63;8.65;;;;;;;6.04;100.00;103315.38;2600527;54;20435;31
2022/02/26 16:26:20;;;;;;;18.77;8.37;;;;;;;5.88;100.00;103329.16;2601313;47;21137;31
2022/02/26 16:29:03;;;;;;;21.75;8.80;;;;;;;5.75;100.00;103325.97;2603103;47;20035;31
2022/02/26 16:34:12;;;;;;;20.00;8.90;;;;;;;5.67;100.00;103321.75;2601729;54;20019;31
2022/02/26 16:36:49;;;;;;;18.77;9.00;;;;;;;5.60;100.00;103335.28;2602177;54;20265;31
2022/02/26 16:47:11;;;;;;;;;;;;;;;5.29;100.00;103337.06;2604028;54;20057;31
2022/02/26 16:49:50;;;;;;;23.97;7.80;;;;;;;5.13;100.00;103348.13;2604174;46;19950;31
2022/02/26 16:57:38;;;;;;;20.70;8.65;;;;;;;4.84;100.00;103344.38;2601841;54;20795;31
2022/02/26 17:00:15;;;;;;;19.35;8.00;;;;;;;4.82;100.00;103351.56;2601522;54;20042;31
2022/02/26 17:02:52;;;;;;;24.65;9.25;;;;;;;4.73;100.00;103362.47;2603040;46;20925;31
2022/02/26 17:13:16;;;;;;;15.37;5.57;;;;;;;4.44;100.00;103366.66;2601900;54;20033;31
2022/02/26 17:15:58;;;;;;;22.10;5.90;;;;;;;4.33;100.00;103371.38;2603199;47;22686;31
2022/02/26 17:23:48;;;;;;;17.63;5.77;;;;;;;4.12;100.00;103380.69;2602140;54;20031;31
2022/02/26 17:28:58;;;;;;;22.02;8.10;;;;;;;3.92;100.00;103373.13;2602854;54;20546;31
2022/02/26 17:36:45;;;;;;;18.52;7.95;;;;;;;3.50;100.00;103393.44;2602915;54;21292;31
2022/02/26 17:41:53;;;;;;;23.50;9.97;;;;;;;3.44;100.00;103382.00;2602335;54;21045;31
2022/02/26 17:44:28;;;;;;;30.15;10.60;;;;;;;3.34;100.00;103381.28;2642958;39;20744;31
2022/02/26 17:52:20;;;;;;;26.67;9.40;;;;;;;3.14;100.00;103389.63;2602570;54;21493;31
2022/02/26 17:54:56;;;;;;;23.27;9.40;;;;;;;3.03;100.00;103379.13;2603077;47;20054;31
2022/02/26 17:57:31;;;;;;;21.80;8.80;;;;;;;2.98;100.00;103383.66;2609213;39;20888;31
2022/02/26 18:05:21;;;;;;;32.65;11.10;;;;;;;2.87;100.00;103382.94;2611824;39;20417;31
2022/02/26 18:10:34;;;;;;;27.90;12.35;;;;;;;2.79;100.00;103381.28;2603219;54;20455;31
2022/02/26 18:15:43;;;;;;;30.25;11.45;;;;;;;2.68;100.00;103375.25;2603525;54;19953;31
2022/02/26 18:20:53;;;;;;;27.23;9.93;;;;;;;2.55;100.00;103371.03;2603428;54;21141;31
2022/02/26 18:26:05;;;;;;;27.30;10.57;;;;;;;2.42;100.00;103375.63;2603766;54;21211;31
2022/02/26 18:31:15;;;;;;;24.95;10.40;;;;;;;2.24;100.00;103384.75;2614229;39;20405;31
2022/02/26 18:39:02;;;;;;;24.10;10.52;;;;;;;2.13;100.00;103389.31;2603564;54;20683;31
2022/02/26 18:41:42;;;;;;;28.30;11.20;;;;;;;2.07;100.00;103385.81;2604506;54;20026;31
2022/02/26 18:49:23;;;;;;;20.20;9.05;;;;;;;1.96;100.00;103395.69;2603417;54;20080;31
2022/02/26 18:52:00;;;;;;;22.90;9.70;;;;;;;1.88;100.00;103400.22;2604379;54;20033;31
2022/02/26 18:59:49;;;;;;;;;;;;;;;1.65;100.00;103396.03;2603569;54;20026;31
2022/02/26 19:02:29;;;;;;;29.43;9.80;;;;;;;1.63;100.00;103394.28;2604297;47;19931;31
2022/02/26 19:10:18;;;;;;;26.23;9.85;;;;;;;1.38;100.00;103390.09;2603437;54;21639;31
2022/02/26 19:15:30;;;;;;;23.73;8.15;;;;;;;1.22;100.00;103389.34;2603780;54;21292;31
2022/02/26 19:18:08;;;;;;;26.98;8.75;;;;;;;1.17;100.00;103387.63;2604395;47;20034;31
2022/02/26 19:25:58;;;;;;;26.73;9.20;;;;;;;1.10;100.00;103377.97;2603265;54;20026;31
2022/02/26 19:33:45;;;;;;;22.38;8.52;;;;;;;0.86;100.00;103369.31;2603639;54;20632;31
2022/02/26 19:41:29;;;;;;;22.67;8.07;;;;;;;0.75;100.00;103365.84;2603620;54;20940;31
2022/02/26 19:49:16;;;;;;;26.00;9.40;;;;;;;0.66;100.00;103365.03;2603628;54;20743;31
2022/02/26 19:54:25;;;;;;;23.42;9.10;;;;;;;0.46;100.00;103369.56;2603836;54;21121;31
2022/02/26 19:59:35;;;;;;;27.98;10.23;;;;;;;0.49;100.00;103358.97;2608353;39;20391;31
2022/02/26 20:02:12;;;;;;;34.45;11.50;;;;;;;0.42;100.00;103367.81;2603627;54;20042;31
2022/02/26 20:04:51;;;;;;;23.30;9.95;;;;;;;0.31;100.00;103360.81;2604174;54;20029;31
2022/02/26 20:15:15;;;;;;;38.40;13.55;;;;;;;0.14;100.00;103358.25;2617485;39;20853;31
2022/02/26 20:20:29;;;;;;;35.33;12.80;;;;;;;0.08;100.00;103360.91;2603421;54;21282;31
2022/02/26 20:25:38;;;;;;;41.30;15.10;;;;;;;0.08;100.00;103357.41;2603619;54;20963;31
2022/02/26 20:28:13;;;;;;;36.40;14.95;;;;;;;-0.03;100.00;103360.97;2702652;39;20855;31
2022/02/26 20:36:04;;;;;;;34.95;15.65;;;;;;;-0.21;100.00;103345.16;2603197;54;21442;31
2022/02/26 20:44:02;;;;;;;34.05;14.55;;;;;;;-0.22;100.00;103353.97;2602928;54;20646;31
2022/02/26 20:49:25;;;;;;;32.25;14.05;;;;;;;-0.29;100.00;103360.19;2603298;54;20030;31
2022/02/26 20:54:37;;;;;;;32.60;13.35;;;;;;;-0.40;100.00;103361.09;2701563;39;20452;31
2022/02/26 20:59:49;;;;;;;33.00;15.02;;;;;;;-0.43;100.00;103363.72;2603272;54;20499;31
2022/02/26 21:04:57;;;;;;;37.10;16.50;;;;;;;-0.47;100.00;103369.91;2701945;39;20980;31
2022/02/26 21:07:33;;;;;;;36.90;17.85;;;;;;;-0.47;100.00;103372.56;2603645;47;20072;31
2022/02/26 21:10:13;;;;;;;41.23;18.03;;;;;;;-0.49;100.00;103373.44;2603874;47;20552;31
2022/02/26 21:18:01;;;;;;;46.20;18.95;;;;;;;-0.49;100.00;103370.81;2602692;54;20695;31
2022/02/26 21:20:37;;;;;;;49.35;20.63;;;;;;;-0.52;100.00;103369.03;2622464;36;21500;31
2022/02/26 21:31:05;;;;;;;42.33;18.33;;;;;;;-0.66;100.00;103362.88;2603691;54;20422;31
2022/02/26 21:36:14;;;;;;;35.55;16.75;;;;;;;-0.71;100.00;103366.44;2754272;31;20437;31
2022/02/26 21:41:24;;;;;;;34.50;16.52;;;;;;;-0.75;100.00;103367.31;2603938;54;21616;31
2022/02/26 21:43:59;;;;;;;45.47;17.40;;;;;;;-0.83;100.00;103360.25;2604692;54;20958;31
2022/02/26 21:49:18;;;;;;;39.47;16.57;;;;;;;-0.89;100.00;103363.78;2603645;54;20614;31
2022/02/26 21:51:54;;;;;;;38.92;18.63;;;;;;;-0.91;100.00;103353.22;2604121;46;20250;31
2022/02/26 21:54:30;;;;;;;50.53;18.47;;;;;;;-0.87;100.00;103364.66;2702887;39;20965;31
2022/02/26 21:57:07;;;;;;;45.42;18.80;;;;;;;-0.92;100.00;103362.00;2604445;47;20108;31
2022/02/26 22:04:58;;;;;;;50.50;20.60;;;;;;;-0.91;100.00;103362.91;2765232;31;20034;31
2022/02/26 22:12:45;;;;;;;55.50;20.10;;;;;;;-0.55;100.00;103359.34;2603771;54;20301;31
2022/02/26 22:23:08;;;;;;;50.83;21.00;;;;;;;-0.27;100.00;103356.63;2702267;39;20502;31
2022/02/26 22:28:17;;;;;;;48.60;18.10;;;;;;;-0.18;100.00;103361.00;2650518;39;20424;31
2022/02/26 22:33:30;;;;;;;41.70;18.10;;;;;;;0.01;100.00;103345.06;2603619;54;20076;31
2022/02/26 22:43:50;;;;;;;48.10;18.25;;;;;;;-0.08;100.00;103354.81;2603946;54;21128;31
2022/02/26 22:51:53;;;;;;;53.72;19.70;;;;;;;-0.09;100.00;103355.72;2603519;54;20019;31
2022/02/26 22:57:03;;;;;;;46.28;18.20;;;;;;;-0.14;100.00;103351.31;2702477;39;20941;31
2022/02/26 22:59:49;;;;;;;49.42;17.25;;;;;;;-0.14;100.00;103346.88;2603968;47;20468;31
2022/02/26 23:02:38;;;;;;;39.05;17.95;;;;;;;-0.21;100.00;103345.16;2604510;47;21095;31
2022/02/26 23:08:04;;;;;;;42.67;17.67;;;;;;;-0.15;100.00;103339.81;2603574;54;20326;31
2022/02/26 23:18:50;;;;;;;39.53;16.15;;;;;;;-0.15;100.00;103338.94;2603296;54;20027;31
2022/02/26 23:21:26;;;;;;;39.90;15.90;;;;;;;-0.15;100.00;103336.31;2702212;39;20425;31
2022/02/26 23:24:06;;;;;;;37.00;14.00;;;;;;;-0.19;100.00;103328.38;2604298;46;20030;31
2022/02/26 23:34:49;;;;;;;32.63;15.40;;;;;;;-0.48;100.00;103333.75;2603209;54;20026;31
2022/02/26 23:37:26;;;;;;;36.70;15.65;;;;;;;-0.50;100.00;103334.63;2603999;47;20113;31
2022/02/26 23:40:10;;;;;;;36.22;14.85;;;;;;;-0.64;100.00;103329.38;2603911;47;21467;31
2022/02/26 23:45:36;;;;;;;33.50;13.98;;;;;;;-0.78;100.00;103327.66;2603603;54;20018;31
2022/02/26 23:50:51;;;;;;;29.50;13.93;;;;;;;-0.84;100.00;103322.38;2603729;54;21590;31
2022/02/26 23:53:28;;;;;;;34.20;14.25;;;;;;;-0.86;100.00;103325.91;2603978;46;20044;31
2022/02/26 23:58:43;;;;;;;33.67;14.20;;;;;;;-1.00;100.00;103325.88;2603374;54;20942;31
